METAR Data
IDs: Format: Raw Decoded Include TAF

Data at: 1531 UTC 03 Dec 2021

KMMV 031453Z AUTO 00000KT 10SM BKN120 02/M01 A3027 RMK AO2 SLP251 T00221006 58006
KMMV 031353Z AUTO 34006KT 10SM CLR 02/00 A3029 RMK AO2 SLP257 T00220000
KMMV 031253Z AUTO 34004KT 10SM CLR 03/00 A3029 RMK AO2 SLP256 T00280000
KMMV 031153Z AUTO 31003KT 10SM CLR 03/01 A3029 RMK AO2 SLP256 T00330006 10083 20033 58005
KMMV 031053Z AUTO 34004KT 10SM CLR 04/01 A3030 RMK AO2 SLP261 T00390006
KMMV 030953Z AUTO 34003KT 10SM CLR 06/00 A3031 RMK AO2 SLP263 T00610000
KMMV 030853Z AUTO 03004KT 10SM CLR 07/01 A3030 RMK AO2 SLP261 T00670006 58007
KMMV 030753Z AUTO 34006KT 10SM CLR 07/01 A3032 RMK AO2 SLP268 T00720011 401500072
KMMV 030653Z AUTO 35005KT 10SM CLR 08/02 A3033 RMK AO2 SLP272 T00780017
KMMV 030553Z AUTO 02006KT 10SM CLR 08/02 A3033 RMK AO2 SLP269 T00780017 10117 20078 50001
KMMV 030453Z AUTO 01006KT 10SM CLR 08/02 A3033 RMK AO2 SLP270 T00830022
KMMV 030353Z AUTO 01007KT 10SM CLR 09/03 A3033 RMK AO2 SLP269 T00890028
KMMV 030253Z AUTO 02010KT 10SM OVC046 09/03 A3032 RMK AO2 SLP267 T00940028 53005
KMMV 030153Z AUTO 01011KT 10SM OVC045 11/03 A3032 RMK AO2 SLP265 T01060033
KMMV 030053Z AUTO 04006KT 10SM BKN040 OVC049 11/03 A3030 RMK AO2 SLP261 T01060033
KMMV 022353Z AUTO 03007KT 10SM OVC045 12/04 A3031 RMK AO2 SLP263 T01170044 10150 20111 53004
KMMV 022253Z AUTO 01008KT 10SM OVC045 13/06 A3030 RMK AO2 SLP258 T01280056
KMMV 022153Z AUTO 03008KT 10SM OVC043 14/07 A3030 RMK AO2 SLP259 T01390067 $
KMMV 022053Z AUTO 03004KT 10SM BKN048 15/06 A3030 RMK AO2 SLP259 T01500061 58003
KMMV 021953Z AUTO 00000KT 10SM SCT037 OVC048 14/06 A3030 RMK AO2 SLP261 T01390061
KMMV 021853Z AUTO 00000KT 10SM OVC046 13/08 A3031 RMK AO2 SLP264 T01280078
KMMV 021753Z AUTO 19003KT 10SM FEW042 11/08 A3031 RMK AO2 SLP262 T01110083 10111 20078 51019
KMMV 021653Z AUTO 00000KT 6SM BR SCT038 08/06 A3029 RMK AO2 SLP256 T00830061
KMMV 021553Z AUTO 28003KT 7SM SCT035 08/06 A3027 RMK AO2 SLP250 T00780056
KMMV 021520Z AUTO 32005KT 7SM OVC033 08/06 A3027 RMK AO2 T00830061
KMMV 021512Z AUTO 34005KT 2SM BR OVC032 08/06 A3027 RMK AO2 T00830061
KMMV 021453Z AUTO 01004KT 1/2SM FG SCT001 OVC032 08/06 A3025 RMK AO2 SLP243 T00830061 51012
KMMV 021418Z AUTO 31003KT 1/2SM FG VV001 08/06 A3025 RMK AO2 T00780056
KMMV 021353Z AUTO 00000KT 1/4SM HZ BKN001 OVC027 09/06 A3024 RMK AO2 SLP239 T00890061 $
KMMV 021346Z AUTO 00000KT 1/4SM FG BKN001 OVC026 08/06 A3023 RMK AO2 T00830061 $
KMMV 021341Z AUTO 00000KT 1/2SM FG SCT001 OVC026 09/07 A3023 RMK AO2 T00890067 $
KMMV 021315Z AUTO 32005KT 1/2SM FG BKN024 09/07 A3024 RMK AO2 T00890067 $
KMMV 021300Z AUTO 00000KT 1/4SM FG FEW001 SCT021 08/07 A3023 RMK AO2 T00830067 $
KMMV 021256Z AUTO 00000KT 3/4SM BR VV001 08/07 A3023 RMK AO2 T00830067 $
KMMV 021253Z AUTO 00000KT 1 1/2SM BR FEW001 09/07 A3023 RMK AO2 VIS 3/4V4 SLP236 T00940072 $
KMMV 021243Z AUTO 32004KT 1 1/4SM BR SCT001 09/07 A3023 RMK AO2 T00940072 $
KMMV 021241Z AUTO 32005KT 3/4SM BR VV001 09/07 A3023 RMK AO2 T00890067 $
KMMV 021213Z AUTO 00000KT 1/4SM HZ BKN002 OVC050 09/07 A3022 RMK AO2 T00940067 $
KMMV 021203Z AUTO 00000KT 1/2SM FG SCT001 BKN050 09/07 A3022 RMK AO2 T00940072 $
KMMV 021153Z AUTO 00000KT 3/4SM BR BKN050 09/08 A3022 RMK AO2 SLPNO 7//// T00940078 10128 20094 50001 $
KMMV 021132Z AUTO 00000KT 3/4SM BR CLR 09/07 A3021 RMK AO2 T00940072 $
KMMV 021053Z AUTO 00000KT 10SM SCT032 SCT045 BKN050 11/08 A3022 RMK AO2 SLP233 T01110083 $
KMMV 020953Z AUTO 00000KT 10SM SCT034 OVC043 12/09 A3022 RMK AO2 SLP231 T01220089 $
KMMV 020853Z AUTO 26005KT 10SM OVC100 11/08 A3021 RMK AO2 SLP231 T01110083 51014 $
KMMV 020753Z AUTO 00000KT 10SM OVC085 12/09 A3021 RMK AO2 SLP230 T01220089 401500056 $
KMMV 020653Z AUTO 31003KT 10SM OVC085 13/09 A3019 RMK AO2 SLP222 T01280094 $
KMMV 020553Z AUTO 27004KT 10SM OVC090 13/09 A3017 RMK AO2 SLP216 6//// T01280094 10150 20122 51009 $
KMMV 020453Z AUTO 23005KT 10SM OVC090 13/10 A3016 RMK AO2 SLP213 T01330100 $
KMMV 020353Z AUTO 26004KT 10SM OVC090 13/09 A3016 RMK AO2 SLP212 T01280094 $